Time,TemperatureF,DewpointF,PressureIn,WindDirection,WindDirectionDegrees,WindSpeedMPH,WindSpeedGustMPH,Humidity,HourlyPrecipIn,Conditions,Clouds,dailyrainin,SoftwareType,DateUTC
2014-02-21 00:02:00,-3.3,-7.7,30.51,NNW,334,1.0,4.0,81,0.00,,---,1.32,VWS V14.01,2014-02-21 07:02:00,
2014-02-21 00:07:00,-4.0,-8.4,30.51,NNW,334,5.0,6.0,81,0.00,,---,0.00,VWS V14.01,2014-02-21 07:07:00,
2014-02-21 00:12:00,-4.2,-8.3,30.51,NNW,334,0.0,0.0,82,0.00,,---,0.00,VWS V14.01,2014-02-21 07:12:00,
2014-02-21 00:17:00,-4.1,-7.9,30.51,NNW,334,0.0,0.0,83,0.00,,---,0.00,VWS V14.01,2014-02-21 07:17:00,
2014-02-21 00:23:00,-4.1,-7.9,30.50,NNW,334,3.0,3.0,83,0.00,,---,0.00,VWS V14.01,2014-02-21 07:23:00,
2014-02-21 00:28:00,-3.8,-7.4,30.51,NNW,328,5.0,5.0,84,0.00,,---,0.00,VWS V14.01,2014-02-21 07:28:00,
2014-02-21 00:33:00,-4.5,-8.6,30.51,NNW,328,0.0,0.0,82,0.00,,---,0.00,VWS V14.01,2014-02-21 07:33:00,
2014-02-21 00:38:00,-4.4,-8.0,30.51,NNW,328,3.0,3.0,84,0.00,,---,0.00,VWS V14.01,2014-02-21 07:38:00,
2014-02-21 00:43:00,-3.7,-7.1,30.51,NW,326,1.0,2.0,85,0.00,,---,0.00,VWS V14.01,2014-02-21 07:43:00,
2014-02-21 00:48:00,-3.5,-6.9,30.51,NW,326,0.0,0.0,85,0.00,,---,0.00,VWS V14.01,2014-02-21 07:48:00,
2014-02-21 00:53:00,-3.0,-6.4,30.50,NW,326,0.0,0.0,85,0.00,,---,0.00,VWS V14.01,2014-02-21 07:53:00,
2014-02-21 00:58:00,-2.6,-6.0,30.51,NW,326,0.0,0.0,85,0.00,,---,0.00,VWS V14.01,2014-02-21 07:58:00,
2014-02-21 01:03:00,-2.7,-6.1,30.50,NW,326,0.0,0.0,85,0.00,,---,0.00,VWS V14.01,2014-02-21 08:03:00,
2014-02-21 01:08:00,-2.7,-6.3,30.50,NW,326,2.0,2.0,84,0.00,,---,0.00,VWS V14.01,2014-02-21 08:08:00,
2014-02-21 01:13:00,-2.7,-6.3,30.51,NW,326,0.0,0.0,84,0.00,,---,0.00,VWS V14.01,2014-02-21 08:13:00,
2014-02-21 01:18:00,-2.8,-6.4,30.50,NW,326,0.0,0.0,84,0.00,,---,0.00,VWS V14.01,2014-02-21 08:18:00,
2014-02-21 01:23:00,-2.8,-6.4,30.51,NW,326,5.0,5.0,84,0.00,,---,0.00,VWS V14.01,2014-02-21 08:23:00,
2014-02-21 01:28:00,-2.3,-5.7,30.51,NW,326,1.0,2.0,85,0.00,,---,0.00,VWS V14.01,2014-02-21 08:28:00,
2014-02-21 01:33:00,-1.6,-4.8,30.50,NW,326,0.0,0.0,86,0.00,,---,0.00,VWS V14.01,2014-02-21 08:33:00,
2014-02-21 01:38:00,-1.2,-4.4,30.50,NW,326,0.0,0.0,86,0.00,,---,0.00,VWS V14.01,2014-02-21 08:38:00,
2014-02-21 01:43:00,-1.0,-4.2,30.50,NW,326,0.0,0.0,86,0.00,,---,0.00,VWS V14.01,2014-02-21 08:43:00,
2014-02-21 01:48:00,-1.0,-4.4,30.50,NW,326,0.0,0.0,85,0.00,,---,0.00,VWS V14.01,2014-02-21 08:48:00,
2014-02-21 01:53:00,-1.1,-4.8,30.50,NW,326,0.0,0.0,84,0.00,,---,0.00,VWS V14.01,2014-02-21 08:53:00,
2014-02-21 01:58:00,-1.2,-4.8,30.51,NW,326,0.0,0.0,84,0.00,,---,0.00,VWS V14.01,2014-02-21 08:58:00,
2014-02-21 02:03:00,-1.0,-4.7,30.50,NW,326,1.0,2.0,84,0.00,,---,0.00,VWS V14.01,2014-02-21 09:03:00,
2014-02-21 02:08:00,-1.1,-4.8,30.50,NW,326,2.0,3.0,84,0.00,,---,0.00,VWS V14.01,2014-02-21 09:08:00,
2014-02-21 02:13:00,-1.2,-4.8,30.50,NW,326,2.0,2.0,84,0.00,,---,0.00,VWS V14.01,2014-02-21 09:13:00,
2014-02-21 02:18:00,-1.2,-4.8,30.50,NW,326,0.0,0.0,84,0.00,,---,0.00,VWS V14.01,2014-02-21 09:18:00,
2014-02-21 02:23:00,-0.9,-4.3,30.50,NW,326,0.0,0.0,85,0.00,,---,0.00,VWS V14.01,2014-02-21 09:23:00,
2014-02-21 02:28:00,-0.6,-4.0,30.50,NW,326,0.0,0.0,85,0.00,,---,0.00,VWS V14.01,2014-02-21 09:28:00,
2014-02-21 02:33:00,-0.4,-3.8,30.50,NW,326,3.0,3.0,85,0.00,,---,0.00,VWS V14.01,2014-02-21 09:33:00,
2014-02-21 02:38:00,0.1,-3.1,30.50,NW,326,1.0,1.0,86,0.00,,---,0.00,VWS V14.01,2014-02-21 09:38:00,
2014-02-21 02:43:00,0.6,-2.6,30.50,NW,326,0.0,1.0,86,0.00,,---,0.00,VWS V14.01,2014-02-21 09:43:00,
2014-02-21 02:48:00,0.9,-2.3,30.50,NW,326,0.0,0.0,86,0.00,,---,0.00,VWS V14.01,2014-02-21 09:48:00,
2014-02-21 02:53:00,1.0,-2.2,30.50,NW,326,1.0,2.0,86,0.00,,---,0.00,VWS V14.01,2014-02-21 09:53:00,
2014-02-21 02:58:00,1.1,-2.1,30.50,NW,326,0.0,0.0,86,0.00,,---,0.00,VWS V14.01,2014-02-21 09:58:00,
2014-02-21 03:03:00,1.2,-2.0,30.50,NW,326,0.0,0.0,86,0.00,,---,0.00,VWS V14.01,2014-02-21 10:03:00,
2014-02-21 03:09:00,1.3,-1.9,30.50,NW,326,0.0,0.0,86,0.00,,---,0.00,VWS V14.01,2014-02-21 10:09:00,
2014-02-21 03:14:00,1.3,-2.2,30.50,NW,326,0.0,0.0,85,0.00,,---,0.00,VWS V14.01,2014-02-21 10:14:00,
2014-02-21 03:19:00,1.3,-2.2,30.51,NW,326,0.0,0.0,85,0.00,,---,0.00,VWS V14.01,2014-02-21 10:19:00,
2014-02-21 03:24:00,1.1,-2.3,30.51,NW,326,3.0,4.0,85,0.00,,---,0.00,VWS V14.01,2014-02-21 10:24:00,
2014-02-21 03:29:00,1.0,-2.5,30.51,NW,326,0.0,0.0,85,0.00,,---,0.00,VWS V14.01,2014-02-21 10:29:00,
2014-02-21 03:34:00,1.0,-2.5,30.51,NW,326,2.0,2.0,85,0.00,,---,0.00,VWS V14.01,2014-02-21 10:34:00,
2014-02-21 03:39:00,1.6,-1.4,30.51,NW,326,1.0,2.0,87,0.00,,---,0.00,VWS V14.01,2014-02-21 10:39:00,
2014-02-21 03:44:00,2.4,-0.6,30.51,NW,326,5.0,5.0,87,0.00,,---,0.00,VWS V14.01,2014-02-21 10:44:00,
2014-02-21 03:49:00,3.3,0.6,30.51,NW,326,0.0,2.0,88,0.00,,---,0.00,VWS V14.01,2014-02-21 10:49:00,
2014-02-21 03:54:00,3.8,1.0,30.51,NW,326,1.0,2.0,88,0.00,,---,0.00,VWS V14.01,2014-02-21 10:54:00,
2014-02-21 03:59:00,3.6,0.6,30.51,NW,326,4.0,4.0,87,0.00,,---,0.00,VWS V14.01,2014-02-21 10:59:00,
2014-02-21 04:04:00,3.1,-0.4,30.51,NW,326,2.0,2.0,85,0.00,,---,0.00,VWS V14.01,2014-02-21 11:04:00,
2014-02-21 04:09:00,2.7,-0.5,30.51,NW,326,1.0,2.0,86,0.00,,---,0.00,VWS V14.01,2014-02-21 11:09:00,
2014-02-21 04:14:00,2.6,-0.6,30.52,NW,326,0.0,0.0,86,0.00,,---,0.00,VWS V14.01,2014-02-21 11:14:00,
2014-02-21 04:19:00,2.6,-0.6,30.52,NW,326,0.0,0.0,86,0.00,,---,0.00,VWS V14.01,2014-02-21 11:19:00,
2014-02-21 04:24:00,2.7,-0.5,30.52,NW,326,0.0,0.0,86,0.00,,---,0.00,VWS V14.01,2014-02-21 11:24:00,
2014-02-21 04:29:00,2.9,-0.3,30.53,NW,326,0.0,0.0,86,0.00,,---,0.00,VWS V14.01,2014-02-21 11:29:00,
2014-02-21 04:34:00,3.0,-0.2,30.53,NW,326,0.0,0.0,86,0.00,,---,0.00,VWS V14.01,2014-02-21 11:34:00,
2014-02-21 04:39:00,3.2,0.0,30.53,NW,326,0.0,0.0,86,0.00,,---,0.00,VWS V14.01,2014-02-21 11:39:00,
2014-02-21 04:44:00,3.3,0.3,30.53,NW,326,0.0,0.0,87,0.00,,---,0.00,VWS V14.01,2014-02-21 11:44:00,
2014-02-21 04:49:00,3.4,0.4,30.53,NW,326,0.0,0.0,87,0.00,,---,0.00,VWS V14.01,2014-02-21 11:49:00,
2014-02-21 04:54:00,3.6,0.6,30.53,NW,326,0.0,0.0,87,0.00,,---,0.00,VWS V14.01,2014-02-21 11:54:00,
2014-02-21 04:59:00,3.7,0.7,30.53,NW,326,0.0,0.0,87,0.00,,---,0.00,VWS V14.01,2014-02-21 11:59:00,
2014-02-21 05:04:00,3.9,0.9,30.53,NW,326,0.0,0.0,87,0.00,,---,0.00,VWS V14.01,2014-02-21 12:04:00,
2014-02-21 05:09:00,4.0,1.0,30.54,NW,326,4.0,5.0,87,0.00,,---,0.00,VWS V14.01,2014-02-21 12:09:00,
2014-02-21 05:14:00,4.1,1.1,30.54,NW,326,0.0,0.0,87,0.00,,---,0.00,VWS V14.01,2014-02-21 12:14:00,
2014-02-21 05:19:00,4.0,1.0,30.54,NW,326,0.0,0.0,87,0.00,,---,0.00,VWS V14.01,2014-02-21 12:19:00,
2014-02-21 05:24:00,4.1,1.1,30.54,NW,326,0.0,0.0,87,0.00,,---,0.00,VWS V14.01,2014-02-21 12:24:00,
2014-02-21 05:29:00,4.1,1.1,30.54,NW,326,0.0,0.0,87,0.00,,---,0.00,VWS V14.01,2014-02-21 12:29:00,
2014-02-21 05:34:00,4.1,1.1,30.53,NW,326,2.0,3.0,87,0.00,,---,0.00,VWS V14.01,2014-02-21 12:34:00,
2014-02-21 05:39:00,4.3,1.3,30.53,NW,326,0.0,0.0,87,0.00,,---,0.00,VWS V14.01,2014-02-21 12:39:00,
2014-02-21 05:44:00,4.4,1.4,30.53,NW,326,0.0,0.0,87,0.00,,---,0.00,VWS V14.01,2014-02-21 12:44:00,
2014-02-21 05:49:00,4.5,1.5,30.53,NW,326,0.0,0.0,87,0.00,,---,0.00,VWS V14.01,2014-02-21 12:49:00,
2014-02-21 05:53:00,4.5,1.5,30.53,NW,326,2.0,2.0,87,0.00,,---,0.00,VWS V14.01,2014-02-21 12:53:00,
2014-02-21 05:58:00,4.5,1.5,30.53,NW,326,2.0,3.0,87,0.00,,---,0.00,VWS V14.01,2014-02-21 12:58:00,
2014-02-21 06:03:00,4.6,1.6,30.53,NW,326,2.0,2.0,87,0.00,,---,0.00,VWS V14.01,2014-02-21 13:03:00,
2014-02-21 06:08:00,4.6,1.6,30.53,NW,326,0.0,0.0,87,0.00,,---,0.00,VWS V14.01,2014-02-21 13:08:00,
2014-02-21 06:13:00,4.6,1.6,30.54,NW,326,0.0,0.0,87,0.00,,---,0.00,VWS V14.01,2014-02-21 13:13:00,
2014-02-21 06:18:00,4.6,1.6,30.54,NW,326,0.0,0.0,87,0.00,,---,0.00,VWS V14.01,2014-02-21 13:18:00,
2014-02-21 06:23:00,4.5,1.5,30.54,NW,326,3.0,3.0,87,0.00,,---,0.00,VWS V14.01,2014-02-21 13:23:00,
2014-02-21 06:28:00,4.6,1.6,30.54,NW,326,0.0,0.0,87,0.00,,---,0.00,VWS V14.01,2014-02-21 13:28:00,
2014-02-21 06:33:00,4.6,1.6,30.53,NW,326,0.0,0.0,87,0.00,,---,0.00,VWS V14.01,2014-02-21 13:33:00,
2014-02-21 06:38:00,4.7,1.7,30.54,NW,326,0.0,0.0,87,0.00,,---,0.00,VWS V14.01,2014-02-21 13:38:00,
2014-02-21 06:43:00,4.8,1.8,30.54,NW,326,0.0,0.0,87,0.00,,---,0.00,VWS V14.01,2014-02-21 13:43:00,
2014-02-21 06:48:00,5.0,2.0,30.54,NW,326,0.0,0.0,87,0.00,,---,0.00,VWS V14.01,2014-02-21 13:48:00,
2014-02-21 06:53:00,5.0,2.0,30.54,NW,326,0.0,0.0,87,0.00,,---,0.00,VWS V14.01,2014-02-21 13:53:00,
2014-02-21 06:58:00,5.1,2.1,30.54,NW,326,0.0,0.0,87,0.00,,---,0.00,VWS V14.01,2014-02-21 13:58:00,
2014-02-21 07:03:00,5.2,2.2,30.54,NW,326,0.0,0.0,87,0.00,,---,0.00,VWS V14.01,2014-02-21 14:03:00,
2014-02-21 07:08:00,5.1,2.1,30.54,NW,326,0.0,0.0,87,0.00,,---,0.00,VWS V14.01,2014-02-21 14:08:00,
2014-02-21 07:13:00,5.0,2.0,30.54,NW,326,0.0,0.0,87,0.00,,---,0.00,VWS V14.01,2014-02-21 14:13:00,
2014-02-21 07:18:00,5.0,2.0,30.55,NW,326,0.0,0.0,87,0.00,,---,0.00,VWS V14.01,2014-02-21 14:18:00,
2014-02-21 07:23:00,5.1,2.1,30.54,NW,326,0.0,0.0,87,0.00,,---,0.00,VWS V14.01,2014-02-21 14:23:00,
2014-02-21 07:28:00,5.0,2.0,30.55,NW,326,0.0,0.0,87,0.00,,---,0.00,VWS V14.01,2014-02-21 14:28:00,
2014-02-21 07:34:00,4.9,1.6,30.55,NW,326,0.0,0.0,86,0.00,,---,0.00,VWS V14.01,2014-02-21 14:34:00,
2014-02-21 07:39:00,4.9,1.6,30.55,NW,326,2.0,2.0,86,0.00,,---,0.00,VWS V14.01,2014-02-21 14:39:00,
2014-02-21 07:44:00,4.9,1.6,30.55,NW,326,0.0,0.0,86,0.00,,---,0.00,VWS V14.01,2014-02-21 14:44:00,
2014-02-21 07:49:00,5.2,2.2,30.55,NW,326,0.0,0.0,87,0.00,,---,0.00,VWS V14.01,2014-02-21 14:49:00,
2014-02-21 07:54:00,5.5,2.5,30.55,NW,326,0.0,0.0,87,0.00,,---,0.00,VWS V14.01,2014-02-21 14:54:00,
2014-02-21 07:59:00,5.6,2.6,30.55,NW,326,0.0,0.0,87,0.00,,---,0.00,VWS V14.01,2014-02-21 14:59:00,
2014-02-21 08:04:00,5.8,2.5,30.56,NW,326,0.0,1.0,86,0.00,,---,0.00,VWS V14.01,2014-02-21 15:04:00,
2014-02-21 08:09:00,6.0,2.7,30.56,NW,326,0.0,0.0,86,0.00,,---,0.00,VWS V14.01,2014-02-21 15:09:00,
2014-02-21 08:14:00,6.4,3.4,30.56,NW,326,0.0,0.0,87,0.00,,---,0.00,VWS V14.01,2014-02-21 15:14:00,
2014-02-21 08:19:00,6.9,3.9,30.56,NW,326,2.0,2.0,87,0.00,,---,0.00,VWS V14.01,2014-02-21 15:19:00,
2014-02-21 08:24:00,7.5,4.4,30.56,NW,326,0.0,0.0,87,0.00,,---,0.00,VWS V14.01,2014-02-21 15:24:00,
2014-02-21 08:29:00,8.3,5.2,30.56,NW,326,0.0,0.0,87,0.00,,---,0.00,VWS V14.01,2014-02-21 15:29:00,
2014-02-21 08:34:00,9.3,6.2,30.56,NW,326,0.0,0.0,87,0.00,,---,0.00,VWS V14.01,2014-02-21 15:34:00,
2014-02-21 08:39:00,9.9,5.8,30.56,NW,326,0.0,0.0,83,0.00,,---,0.00,VWS V14.01,2014-02-21 15:39:00,
2014-02-21 08:44:00,9.5,4.9,30.56,NW,326,0.0,0.0,81,0.00,,---,0.00,VWS V14.01,2014-02-21 15:44:00,
2014-02-21 08:49:00,9.4,4.8,30.56,NW,326,2.0,2.0,81,0.00,,---,0.00,VWS V14.01,2014-02-21 15:49:00,
2014-02-21 08:54:00,9.0,4.4,30.56,NW,326,0.0,0.0,81,0.00,,---,0.00,VWS V14.01,2014-02-21 15:54:00,
2014-02-21 08:59:00,9.3,4.7,30.56,NW,326,0.0,0.0,81,0.00,,---,0.00,VWS V14.01,2014-02-21 15:59:00,
2014-02-21 09:04:00,9.4,4.8,30.56,NW,326,3.0,3.0,81,0.00,,---,0.00,VWS V14.01,2014-02-21 16:04:00,
2014-02-21 09:09:00,9.6,4.9,30.56,NW,326,0.0,0.0,81,0.00,,---,0.00,VWS V14.01,2014-02-21 16:09:00,
2014-02-21 09:14:00,10.7,6.0,30.57,NW,326,0.0,0.0,81,0.00,,---,0.00,VWS V14.01,2014-02-21 16:14:00,
2014-02-21 09:19:00,11.2,6.2,30.57,NW,326,2.0,3.0,80,0.00,,---,0.00,VWS V14.01,2014-02-21 16:19:00,
2014-02-21 09:24:00,9.0,3.3,30.57,NW,326,2.0,2.0,77,0.00,,---,0.00,VWS V14.01,2014-02-21 16:24:00,
2014-02-21 09:29:00,8.9,4.0,30.57,NW,326,0.0,0.0,80,0.00,,---,0.00,VWS V14.01,2014-02-21 16:29:00,
2014-02-21 09:34:00,8.9,3.7,30.57,NW,326,0.0,0.0,79,0.00,,---,0.00,VWS V14.01,2014-02-21 16:34:00,
2014-02-21 09:39:00,9.0,3.8,30.57,NW,326,0.0,0.0,79,0.00,,---,0.00,VWS V14.01,2014-02-21 16:39:00,
2014-02-21 09:44:00,9.5,4.0,30.57,NW,326,1.0,1.0,78,0.00,,---,0.00,VWS V14.01,2014-02-21 16:44:00,
2014-02-21 09:49:00,10.2,4.7,30.57,NW,326,3.0,4.0,78,0.00,,---,0.00,VWS V14.01,2014-02-21 16:49:00,
2014-02-21 09:54:00,10.2,4.4,30.57,NW,326,0.0,0.0,77,0.00,,---,0.00,VWS V14.01,2014-02-21 16:54:00,
2014-02-21 09:59:00,10.3,4.5,30.57,NW,326,0.0,0.0,77,0.00,,---,0.00,VWS V14.01,2014-02-21 16:59:00,
2014-02-21 10:04:00,10.3,4.5,30.56,NW,326,0.0,0.0,77,0.00,,---,0.00,VWS V14.01,2014-02-21 17:04:00,
2014-02-21 10:09:00,10.4,4.6,30.57,NW,326,0.0,0.0,77,0.00,,---,0.00,VWS V14.01,2014-02-21 17:09:00,
2014-02-21 10:14:00,10.4,4.6,30.57,NW,326,3.0,3.0,77,0.00,,---,0.00,VWS V14.01,2014-02-21 17:14:00,
2014-02-21 10:19:00,11.6,6.4,30.56,NW,326,5.0,5.0,79,0.00,,---,0.00,VWS V14.01,2014-02-21 17:19:00,
2014-02-21 10:25:00,11.4,5.6,30.56,NW,326,0.0,0.0,77,0.00,,---,0.00,VWS V14.01,2014-02-21 17:25:00,
2014-02-21 10:30:00,11.9,6.4,30.56,NW,326,0.0,0.0,78,0.00,,---,0.00,VWS V14.01,2014-02-21 17:30:00,
2014-02-21 10:35:00,12.5,7.2,30.56,NW,326,0.0,0.0,79,0.00,,---,0.00,VWS V14.01,2014-02-21 17:35:00,
2014-02-21 10:40:00,13.5,7.9,30.56,NNW,327,0.0,0.0,78,0.00,,---,0.00,VWS V14.01,2014-02-21 17:40:00,
2014-02-21 10:45:00,13.9,8.0,30.56,NW,320,2.0,2.0,77,0.00,,---,0.00,VWS V14.01,2014-02-21 17:45:00,
2014-02-21 10:50:00,13.6,7.5,30.56,NW,320,1.0,2.0,76,0.00,,---,0.00,VWS V14.01,2014-02-21 17:50:00,
2014-02-21 10:55:00,13.4,7.6,30.56,NW,320,4.0,4.0,77,0.00,,---,0.00,VWS V14.01,2014-02-21 17:55:00,
2014-02-21 11:00:00,14.6,8.7,30.56,NW,320,3.0,4.0,77,0.00,,---,0.00,VWS V14.01,2014-02-21 18:00:00,
2014-02-21 11:05:00,14.9,8.7,30.56,NW,320,4.0,4.0,76,0.00,,---,0.00,VWS V14.01,2014-02-21 18:05:00,
2014-02-21 11:10:00,14.9,8.4,30.56,NW,320,1.0,1.0,75,0.00,,---,0.00,VWS V14.01,2014-02-21 18:10:00,
2014-02-21 11:15:00,14.8,8.3,30.55,SSE,157,4.0,4.0,75,0.00,,---,0.00,VWS V14.01,2014-02-21 18:15:00,
2014-02-21 11:20:00,15.1,8.9,30.55,NE,53,7.0,7.0,76,0.00,,---,0.00,VWS V14.01,2014-02-21 18:20:00,
2014-02-21 11:25:00,15.5,9.6,30.55,South,179,8.0,10.0,77,0.00,,---,0.00,VWS V14.01,2014-02-21 18:25:00,
2014-02-21 11:30:00,14.5,8.3,30.55,ESE,119,3.0,3.0,76,0.00,,---,0.00,VWS V14.01,2014-02-21 18:30:00,
2014-02-21 11:35:00,15.7,9.8,30.55,ENE,57,8.0,8.0,77,0.00,,---,0.00,VWS V14.01,2014-02-21 18:35:00,
2014-02-21 11:40:00,16.1,9.6,30.54,South,186,2.0,8.0,75,0.00,,---,0.00,VWS V14.01,2014-02-21 18:40:00,
2014-02-21 11:45:00,15.5,9.6,30.54,NNE,29,4.0,5.0,77,0.00,,---,0.00,VWS V14.01,2014-02-21 18:45:00,
2014-02-21 11:50:00,16.3,9.8,30.54,NE,56,6.0,7.0,75,0.00,,---,0.00,VWS V14.01,2014-02-21 18:50:00,
2014-02-21 11:55:00,17.3,10.8,30.53,SE,134,7.0,8.0,75,0.00,,---,0.00,VWS V14.01,2014-02-21 18:55:00,
2014-02-21 12:00:00,15.8,9.9,30.53,East,95,0.0,0.0,77,0.00,,---,0.00,VWS V14.01,2014-02-21 19:00:00,
2014-02-21 12:05:00,16.0,9.8,30.53,SE,139,3.0,3.0,76,0.00,,---,0.00,VWS V14.01,2014-02-21 19:05:00,
2014-02-21 12:10:00,16.1,10.2,30.52,ENE,65,1.0,5.0,77,0.00,,---,0.00,VWS V14.01,2014-02-21 19:10:00,
2014-02-21 12:15:00,17.0,11.1,30.51,NE,51,5.0,7.0,77,0.00,,---,0.00,VWS V14.01,2014-02-21 19:15:00,
2014-02-21 12:20:00,20.7,14.6,30.50,NNE,31,5.0,7.0,77,0.00,,---,0.00,VWS V14.01,2014-02-21 19:20:00,
2014-02-21 12:25:00,19.8,11.0,30.50,SSE,156,4.0,6.0,68,0.00,,---,0.00,VWS V14.01,2014-02-21 19:25:00,
2014-02-21 12:30:00,18.2,11.3,30.50,ENE,70,2.0,7.0,74,0.00,,---,0.00,VWS V14.01,2014-02-21 19:30:00,
2014-02-21 12:35:00,19.3,12.1,30.50,ENE,78,5.0,7.0,73,0.00,,---,0.00,VWS V14.01,2014-02-21 19:35:00,
2014-02-21 12:40:00,21.6,13.7,30.49,ENE,78,3.0,4.0,71,0.00,,---,0.00,VWS V14.01,2014-02-21 19:40:00,
2014-02-21 12:45:00,22.0,13.7,30.49,East,79,0.0,0.0,70,0.00,,---,0.00,VWS V14.01,2014-02-21 19:45:00,
2014-02-21 12:50:00,23.6,14.3,30.49,East,79,0.0,0.0,67,0.00,,---,0.00,VWS V14.01,2014-02-21 19:50:00,
2014-02-21 12:55:00,23.1,14.1,30.49,SE,139,0.0,0.0,68,0.00,,---,0.00,VWS V14.01,2014-02-21 19:55:00,
2014-02-21 13:00:00,25.7,13.4,30.48,SSW,201,2.0,2.0,59,0.00,,---,0.00,VWS V14.01,2014-02-21 20:00:00,
2014-02-21 13:05:00,25.4,12.7,30.48,West,279,4.0,4.0,58,0.00,,---,0.00,VWS V14.01,2014-02-21 20:05:00,
2014-02-21 13:10:00,27.4,10.8,30.48,SW,232,17.0,17.0,49,0.00,,---,0.00,VWS V14.01,2014-02-21 20:10:00,
2014-02-21 13:15:00,27.9,11.7,30.48,WSW,254,20.0,20.0,50,0.00,,---,0.00,VWS V14.01,2014-02-21 20:15:00,
2014-02-21 13:21:00,27.8,10.7,30.47,West,273,18.0,19.0,48,0.00,,---,0.00,VWS V14.01,2014-02-21 20:21:00,
2014-02-21 13:26:00,27.6,10.5,30.47,West,261,23.0,23.0,48,0.00,,---,0.00,VWS V14.01,2014-02-21 20:26:00,
2014-02-21 13:31:00,27.6,9.5,30.47,West,271,9.0,10.0,46,0.00,,---,0.00,VWS V14.01,2014-02-21 20:31:00,
2014-02-21 13:36:00,27.9,9.8,30.47,WNW,285,11.0,12.0,46,0.00,,---,0.00,VWS V14.01,2014-02-21 20:36:00,
2014-02-21 13:41:00,27.8,9.7,30.46,NW,313,11.0,11.0,46,0.00,,---,0.00,VWS V14.01,2014-02-21 20:41:00,
2014-02-21 13:46:00,28.2,10.1,30.47,NW,311,10.0,11.0,46,0.00,,---,0.00,VWS V14.01,2014-02-21 20:46:00,
2014-02-21 13:51:00,27.7,9.1,30.47,WNW,295,12.0,16.0,45,0.00,,---,0.00,VWS V14.01,2014-02-21 20:51:00,
2014-02-21 13:56:00,28.0,9.4,30.47,WNW,293,7.0,7.0,45,0.00,,---,0.00,VWS V14.01,2014-02-21 20:56:00,
2014-02-21 14:01:00,28.2,8.6,30.47,West,269,15.0,15.0,43,0.00,,---,0.00,VWS V14.01,2014-02-21 21:01:00,
2014-02-21 14:06:00,28.1,10.0,30.47,West,277,8.0,8.0,46,0.00,,---,0.00,VWS V14.01,2014-02-21 21:06:00,
2014-02-21 14:11:00,28.1,9.0,30.46,WNW,293,13.0,13.0,44,0.00,,---,0.00,VWS V14.01,2014-02-21 21:11:00,
2014-02-21 14:16:00,28.1,9.0,30.46,WNW,284,11.0,14.0,44,0.00,,---,0.00,VWS V14.01,2014-02-21 21:16:00,
2014-02-21 14:21:00,28.3,8.2,30.45,WNW,296,10.0,10.0,42,0.00,,---,0.00,VWS V14.01,2014-02-21 21:21:00,
2014-02-21 14:26:00,28.3,8.7,30.45,NW,305,11.0,12.0,43,0.00,,---,0.00,VWS V14.01,2014-02-21 21:26:00,
2014-02-21 14:31:00,28.1,8.5,30.45,NW,310,12.0,14.0,43,0.00,,---,0.00,VWS V14.01,2014-02-21 21:31:00,
2014-02-21 14:36:00,27.8,9.2,30.45,NW,313,6.0,7.0,45,0.00,,---,0.00,VWS V14.01,2014-02-21 21:36:00,
2014-02-21 14:41:00,28.1,8.5,30.45,WNW,301,6.0,10.0,43,0.00,,---,0.00,VWS V14.01,2014-02-21 21:41:00,
2014-02-21 14:46:00,28.1,7.4,30.45,NW,306,10.0,15.0,41,0.00,,---,0.00,VWS V14.01,2014-02-21 21:46:00,
2014-02-21 14:51:00,27.7,8.6,30.44,NNW,340,17.0,17.0,44,0.00,,---,0.00,VWS V14.01,2014-02-21 21:51:00,
2014-02-21 14:56:00,27.2,8.7,30.45,NW,314,6.0,10.0,45,0.00,,---,0.00,VWS V14.01,2014-02-21 21:56:00,
2014-02-21 15:01:00,27.1,9.6,30.45,NW,318,9.0,9.0,47,0.00,,---,0.00,VWS V14.01,2014-02-21 22:01:00,
2014-02-21 15:06:00,28.0,8.4,30.45,NW,309,9.0,13.0,43,0.00,,---,0.00,VWS V14.01,2014-02-21 22:06:00,
2014-02-21 15:11:00,27.9,7.3,30.45,WNW,296,12.0,13.0,41,0.00,,---,0.00,VWS V14.01,2014-02-21 22:11:00,
2014-02-21 15:16:00,27.7,6.5,30.45,NNW,332,10.0,10.0,40,0.00,,---,0.00,VWS V14.01,2014-02-21 22:16:00,
2014-02-21 15:21:00,27.2,7.2,30.45,NNW,333,9.0,10.0,42,0.00,,---,0.00,VWS V14.01,2014-02-21 22:21:00,
2014-02-21 15:26:00,26.5,8.5,30.45,NNW,340,13.0,13.0,46,0.00,,---,0.00,VWS V14.01,2014-02-21 22:26:00,
2014-02-21 15:31:00,26.9,7.9,30.45,NW,315,7.0,8.0,44,0.00,,---,0.00,VWS V14.01,2014-02-21 22:31:00,
2014-02-21 15:36:00,27.3,8.3,30.45,NNW,339,6.0,11.0,44,0.00,,---,0.00,VWS V14.01,2014-02-21 22:36:00,
2014-02-21 15:41:00,26.9,7.9,30.45,NW,317,9.0,9.0,44,0.00,,---,0.00,VWS V14.01,2014-02-21 22:41:00,
2014-02-21 15:46:00,26.5,8.5,30.44,NW,306,7.0,9.0,46,0.00,,---,0.00,VWS V14.01,2014-02-21 22:46:00,
2014-02-21 15:51:00,27.0,8.0,30.44,NNW,327,12.0,14.0,44,0.00,,---,0.00,VWS V14.01,2014-02-21 22:51:00,
2014-02-21 15:56:00,27.0,7.5,30.44,WNW,298,10.0,13.0,43,0.00,,---,0.00,VWS V14.01,2014-02-21 22:56:00,
2014-02-21 16:01:00,27.0,8.0,30.44,NNW,329,8.0,8.0,44,0.00,,---,0.00,VWS V14.01,2014-02-21 23:01:00,
2014-02-21 16:06:00,27.1,8.6,30.43,West,265,21.0,21.0,45,0.00,,---,0.00,VWS V14.01,2014-02-21 23:06:00,
2014-02-21 16:11:00,27.8,8.2,30.43,SW,229,15.0,22.0,43,0.01,,---,0.01,VWS V14.01,2014-02-21 23:11:00,
2014-02-21 16:16:00,27.9,8.3,30.42,NW,310,9.0,9.0,43,0.01,,---,0.01,VWS V14.01,2014-02-21 23:16:00,
2014-02-21 16:22:00,27.8,9.7,30.42,West,274,22.0,22.0,46,0.04,,---,0.04,VWS V14.01,2014-02-21 23:22:00,
2014-02-21 16:27:00,27.7,9.1,30.42,WSW,258,23.0,23.0,45,0.08,,---,0.08,VWS V14.01,2014-02-21 23:27:00,
2014-02-21 16:32:00,27.5,9.0,30.42,NW,304,12.0,12.0,45,0.08,,---,0.08,VWS V14.01,2014-02-21 23:32:00,
2014-02-21 16:37:00,27.5,9.4,30.42,West,270,13.0,13.0,46,0.08,,---,0.08,VWS V14.01,2014-02-21 23:37:00,
2014-02-21 16:42:00,27.5,9.0,30.42,West,278,18.0,18.0,45,0.08,,---,0.08,VWS V14.01,2014-02-21 23:42:00,
2014-02-21 16:47:00,27.5,9.0,30.42,WSW,255,11.0,12.0,45,0.09,,---,0.09,VWS V14.01,2014-02-21 23:47:00,
2014-02-21 16:52:00,27.6,9.5,30.42,WSW,240,14.0,14.0,46,0.09,,---,0.09,VWS V14.01,2014-02-21 23:52:00,
2014-02-21 16:57:00,27.7,8.6,30.42,West,277,10.0,14.0,44,0.09,,---,0.09,VWS V14.01,2014-02-21 23:57:00,
2014-02-21 17:02:00,27.8,8.7,30.41,West,259,13.0,13.0,44,0.09,,---,0.09,VWS V14.01,2014-02-22 00:02:00,
2014-02-21 17:07:00,27.7,9.1,30.41,West,269,9.0,11.0,45,0.09,,---,0.09,VWS V14.01,2014-02-22 00:07:00,
2014-02-21 17:12:00,27.5,8.5,30.41,WSW,249,9.0,13.0,44,0.08,,---,0.09,VWS V14.01,2014-02-22 00:12:00,
2014-02-21 17:17:00,27.7,9.1,30.41,WSW,251,6.0,6.0,45,0.08,,---,0.09,VWS V14.01,2014-02-22 00:17:00,
2014-02-21 17:22:00,27.6,9.5,30.40,WSW,250,5.0,5.0,46,0.05,,---,0.09,VWS V14.01,2014-02-22 00:22:00,
2014-02-21 17:27:00,27.4,8.9,30.40,West,262,11.0,11.0,45,0.01,,---,0.09,VWS V14.01,2014-02-22 00:27:00,
2014-02-21 17:32:00,27.5,7.9,30.40,SW,234,7.0,9.0,43,0.01,,---,0.09,VWS V14.01,2014-02-22 00:32:00,
2014-02-21 17:37:00,27.5,9.0,30.40,WSW,237,6.0,6.0,45,0.01,,---,0.09,VWS V14.01,2014-02-22 00:37:00,
2014-02-21 17:42:00,27.2,8.2,30.40,West,275,7.0,8.0,44,0.01,,---,0.09,VWS V14.01,2014-02-22 00:42:00,
2014-02-21 17:47:00,27.2,9.2,30.40,WSW,253,2.0,5.0,46,0.00,,---,0.09,VWS V14.01,2014-02-22 00:47:00,
2014-02-21 17:52:00,27.2,8.7,30.40,WSW,242,4.0,5.0,45,0.00,,---,0.09,VWS V14.01,2014-02-22 00:52:00,
2014-02-21 17:57:00,27.0,9.0,30.40,WSW,251,8.0,8.0,46,0.00,,---,0.09,VWS V14.01,2014-02-22 00:57:00,
2014-02-21 18:02:00,27.0,9.0,30.40,West,271,12.0,12.0,46,0.00,,---,0.09,VWS V14.01,2014-02-22 01:02:00,
2014-02-21 18:07:00,27.0,9.0,30.40,West,265,1.0,4.0,46,0.00,,---,0.09,VWS V14.01,2014-02-22 01:07:00,
2014-02-21 18:12:00,26.9,8.9,30.40,West,265,0.0,0.0,46,0.00,,---,0.09,VWS V14.01,2014-02-22 01:12:00,
2014-02-21 18:17:00,26.6,8.1,30.40,West,265,0.0,3.0,45,0.00,,---,0.09,VWS V14.01,2014-02-22 01:17:00,
2014-02-21 18:22:00,26.5,8.5,30.40,West,265,0.0,0.0,46,0.00,,---,0.09,VWS V14.01,2014-02-22 01:22:00,
2014-02-21 18:27:00,26.3,8.4,30.40,West,265,1.0,3.0,46,0.00,,---,0.09,VWS V14.01,2014-02-22 01:27:00,
2014-02-21 18:32:00,26.2,8.3,30.40,West,265,0.0,0.0,46,0.00,,---,0.09,VWS V14.01,2014-02-22 01:32:00,
2014-02-21 18:37:00,26.0,8.6,30.40,West,265,0.0,0.0,47,0.00,,---,0.09,VWS V14.01,2014-02-22 01:37:00,
2014-02-21 18:42:00,25.9,8.0,30.39,West,265,0.0,0.0,46,0.00,,---,0.09,VWS V14.01,2014-02-22 01:42:00,
2014-02-21 18:47:00,25.5,8.1,30.39,West,265,0.0,0.0,47,0.00,,---,0.09,VWS V14.01,2014-02-22 01:47:00,
2014-02-21 18:52:00,25.2,7.8,30.40,West,265,0.0,0.0,47,0.00,,---,0.09,VWS V14.01,2014-02-22 01:52:00,
2014-02-21 18:57:00,24.8,7.9,30.39,West,265,4.0,4.0,48,0.00,,---,0.09,VWS V14.01,2014-02-22 01:57:00,
2014-02-21 19:02:00,24.6,8.2,30.39,West,265,0.0,0.0,49,0.00,,---,0.09,VWS V14.01,2014-02-22 02:02:00,
2014-02-21 19:07:00,24.5,8.1,30.39,West,265,3.0,3.0,49,0.00,,---,0.09,VWS V14.01,2014-02-22 02:07:00,
2014-02-21 19:12:00,24.5,9.0,30.39,West,265,0.0,2.0,51,0.00,,---,0.09,VWS V14.01,2014-02-22 02:12:00,
2014-02-21 19:17:00,24.3,7.9,30.39,West,265,2.0,2.0,49,0.00,,---,0.09,VWS V14.01,2014-02-22 02:17:00,
2014-02-21 19:22:00,24.4,8.4,30.39,West,265,2.0,5.0,50,0.00,,---,0.09,VWS V14.01,2014-02-22 02:22:00,
2014-02-21 19:27:00,24.4,8.9,30.39,West,265,1.0,2.0,51,0.00,,---,0.09,VWS V14.01,2014-02-22 02:27:00,
2014-02-21 19:32:00,24.2,8.3,30.39,West,265,5.0,7.0,50,0.00,,---,0.09,VWS V14.01,2014-02-22 02:32:00,
2014-02-21 19:38:00,24.1,7.3,30.39,West,263,7.0,12.0,48,0.00,,---,0.09,VWS V14.01,2014-02-22 02:38:00,
2014-02-21 19:43:00,24.4,9.3,30.39,West,259,0.0,2.0,52,0.00,,---,0.09,VWS V14.01,2014-02-22 02:43:00,
2014-02-21 19:48:00,24.2,9.6,30.39,West,259,0.0,2.0,53,0.00,,---,0.09,VWS V14.01,2014-02-22 02:48:00,
2014-02-21 19:53:00,23.9,8.9,30.39,West,259,2.0,2.0,52,0.00,,---,0.09,VWS V14.01,2014-02-22 02:53:00,
2014-02-21 19:58:00,23.6,8.6,30.39,West,259,3.0,3.0,52,0.00,,---,0.09,VWS V14.01,2014-02-22 02:58:00,
2014-02-21 20:03:00,23.4,8.4,30.39,WSW,258,2.0,5.0,52,0.00,,---,0.09,VWS V14.01,2014-02-22 03:03:00,
2014-02-21 20:08:00,23.4,7.9,30.38,WSW,258,4.0,4.0,51,0.00,,---,0.09,VWS V14.01,2014-02-22 03:08:00,
2014-02-21 20:13:00,23.6,8.6,30.38,WSW,258,0.0,0.0,52,0.00,,---,0.09,VWS V14.01,2014-02-22 03:13:00,
2014-02-21 20:18:00,23.5,8.1,30.38,WSW,258,0.0,0.0,51,0.00,,---,0.09,VWS V14.01,2014-02-22 03:18:00,
2014-02-21 20:23:00,23.3,7.9,30.38,WSW,258,2.0,2.0,51,0.00,,---,0.09,VWS V14.01,2014-02-22 03:23:00,
2014-02-21 20:28:00,23.2,7.8,30.38,WSW,258,3.0,3.0,51,0.00,,---,0.09,VWS V14.01,2014-02-22 03:28:00,
2014-02-21 20:33:00,23.0,8.0,30.38,WSW,258,3.0,3.0,52,0.00,,---,0.09,VWS V14.01,2014-02-22 03:33:00,
2014-02-21 20:38:00,22.9,7.9,30.38,WSW,258,2.0,2.0,52,0.00,,---,0.09,VWS V14.01,2014-02-22 03:38:00,
2014-02-21 20:43:00,22.9,7.1,30.37,WSW,258,0.0,0.0,50,0.00,,---,0.09,VWS V14.01,2014-02-22 03:43:00,
2014-02-21 20:48:00,23.0,7.1,30.37,WSW,258,0.0,0.0,50,0.00,,---,0.09,VWS V14.01,2014-02-22 03:48:00,
2014-02-21 20:53:00,23.0,7.6,30.37,WSW,258,0.0,0.0,51,0.00,,---,0.09,VWS V14.01,2014-02-22 03:53:00,
2014-02-21 20:58:00,22.6,7.2,30.37,WSW,258,1.0,2.0,51,0.00,,---,0.09,VWS V14.01,2014-02-22 03:58:00,
2014-02-21 21:03:00,22.2,7.3,30.37,WSW,258,1.0,3.0,52,0.00,,---,0.09,VWS V14.01,2014-02-22 04:03:00,
2014-02-21 21:08:00,21.8,7.3,30.37,WSW,258,0.0,0.0,53,0.00,,---,0.09,VWS V14.01,2014-02-22 04:08:00,
2014-02-21 21:13:00,21.8,7.3,30.37,WSW,258,2.0,2.0,53,0.00,,---,0.09,VWS V14.01,2014-02-22 04:13:00,
2014-02-21 21:18:00,21.7,7.2,30.36,WSW,258,2.0,2.0,53,0.00,,---,0.09,VWS V14.01,2014-02-22 04:18:00,
2014-02-21 21:23:00,21.3,7.3,30.36,WSW,258,0.0,1.0,54,0.00,,---,0.09,VWS V14.01,2014-02-22 04:23:00,
2014-02-21 21:28:00,21.1,7.1,30.36,WSW,258,2.0,3.0,54,0.00,,---,0.09,VWS V14.01,2014-02-22 04:28:00,
2014-02-21 21:33:00,20.4,6.4,30.36,WSW,258,0.0,1.0,54,0.00,,---,0.09,VWS V14.01,2014-02-22 04:33:00,
2014-02-21 21:38:00,20.0,6.8,30.36,WSW,258,2.0,3.0,56,0.00,,---,0.09,VWS V14.01,2014-02-22 04:38:00,
2014-02-21 21:43:00,20.0,7.2,30.36,WSW,258,2.0,2.0,57,0.00,,---,0.09,VWS V14.01,2014-02-22 04:43:00,
2014-02-21 21:48:00,20.3,7.5,30.35,WSW,258,0.0,1.0,57,0.00,,---,0.09,VWS V14.01,2014-02-22 04:48:00,
2014-02-21 21:53:00,20.4,7.2,30.35,WSW,258,5.0,6.0,56,0.00,,---,0.09,VWS V14.01,2014-02-22 04:53:00,
2014-02-21 21:58:00,20.0,6.8,30.35,WSW,258,0.0,0.0,56,0.00,,---,0.09,VWS V14.01,2014-02-22 04:58:00,
2014-02-21 22:01:00,20.0,6.8,30.35,WSW,258,2.0,2.0,56,0.00,,---,0.09,VWS V14.01,2014-02-22 05:01:00,
2014-02-21 22:02:00,19.8,6.7,30.35,WSW,258,6.0,7.0,56,0.00,,---,0.09,VWS V14.01,2014-02-22 05:02:00,
2014-02-21 22:07:00,19.1,6.8,30.35,West,259,5.0,6.0,58,0.00,,---,0.09,VWS V14.01,2014-02-22 05:07:00,
2014-02-21 22:12:00,18.7,6.8,30.35,West,259,2.0,4.0,59,0.00,,---,0.09,VWS V14.01,2014-02-22 05:12:00,
2014-02-21 22:17:00,18.4,6.8,30.34,West,259,5.0,7.0,60,0.00,,---,0.09,VWS V14.01,2014-02-22 05:17:00,
2014-02-21 22:22:00,18.3,7.1,30.34,West,259,5.0,6.0,61,0.00,,---,0.09,VWS V14.01,2014-02-22 05:22:00,
2014-02-21 22:28:00,19.0,7.4,30.34,West,259,3.0,3.0,60,0.00,,---,0.09,VWS V14.01,2014-02-22 05:28:00,
2014-02-21 22:33:00,19.9,7.5,30.34,West,260,3.0,4.0,58,0.00,,---,0.09,VWS V14.01,2014-02-22 05:33:00,
2014-02-21 22:38:00,20.3,7.5,30.34,West,260,2.0,2.0,57,0.00,,---,0.09,VWS V14.01,2014-02-22 05:38:00,
2014-02-21 22:43:00,20.7,7.5,30.33,West,260,2.0,2.0,56,0.00,,---,0.09,VWS V14.01,2014-02-22 05:43:00,
2014-02-21 22:48:00,20.8,7.6,30.33,West,260,0.0,2.0,56,0.00,,---,0.09,VWS V14.01,2014-02-22 05:48:00,
2014-02-21 22:53:00,21.0,7.4,30.33,West,260,2.0,2.0,55,0.00,,---,0.09,VWS V14.01,2014-02-22 05:53:00,
2014-02-21 22:58:00,21.1,7.5,30.33,West,260,0.0,0.0,55,0.00,,---,0.09,VWS V14.01,2014-02-22 05:58:00,
2014-02-21 23:03:00,21.5,7.8,30.32,West,260,0.0,0.0,55,0.00,,---,0.09,VWS V14.01,2014-02-22 06:03:00,
2014-02-21 23:08:00,21.8,8.1,30.32,West,260,0.0,0.0,55,0.00,,---,0.09,VWS V14.01,2014-02-22 06:08:00,
2014-02-21 23:13:00,21.8,8.1,30.32,West,260,1.0,3.0,55,0.00,,---,0.09,VWS V14.01,2014-02-22 06:13:00,
2014-02-21 23:18:00,21.8,7.7,30.31,West,260,1.0,2.0,54,0.00,,---,0.09,VWS V14.01,2014-02-22 06:18:00,
2014-02-21 23:23:00,21.7,8.0,30.31,West,260,4.0,5.0,55,0.00,,---,0.09,VWS V14.01,2014-02-22 06:23:00,
2014-02-21 23:28:00,21.3,7.7,30.31,West,260,6.0,6.0,55,0.00,,---,0.09,VWS V14.01,2014-02-22 06:28:00,
2014-02-21 23:33:00,20.5,8.8,30.31,West,260,3.0,5.0,60,0.00,,---,0.09,VWS V14.01,2014-02-22 06:33:00,
2014-02-21 23:38:00,19.9,8.3,30.30,West,260,4.0,4.0,60,0.00,,---,0.09,VWS V14.01,2014-02-22 06:38:00,
2014-02-21 23:43:00,19.8,8.5,30.30,West,260,0.0,1.0,61,0.00,,---,0.09,VWS V14.01,2014-02-22 06:43:00,
2014-02-21 23:48:00,19.6,8.7,30.30,West,260,0.0,2.0,62,0.00,,---,0.09,VWS V14.01,2014-02-22 06:48:00,
2014-02-21 23:53:00,19.4,8.9,30.30,West,261,3.0,4.0,63,0.00,,---,0.09,VWS V14.01,2014-02-22 06:53:00,
2014-02-21 23:58:00,19.5,9.0,30.29,West,261,2.0,4.0,63,0.00,,---,0.09,VWS V14.01,2014-02-22 06:58:00,